sensor_id;sensor_type;location;lat;lon;timestamp;P1;durP1;ratioP1;P2;durP2;ratioP2
32347;SDS011;18821;44.800;10.326;2023-04-15T00:01:37;12.48;;;1.83;;
32347;SDS011;18821;44.800;10.326;2023-04-15T00:04:03;9.15;;;1.40;;
32347;SDS011;18821;44.800;10.326;2023-04-15T00:06:29;11.45;;;1.63;;
32347;SDS011;18821;44.800;10.326;2023-04-15T00:08:55;8.07;;;2.08;;
32347;SDS011;18821;44.800;10.326;2023-04-15T00:11:21;12.45;;;1.83;;
32347;SDS011;18821;44.800;10.326;2023-04-15T00:13:48;14.40;;;1.80;;
32347;SDS011;18821;44.800;10.326;2023-04-15T00:16:14;11.93;;;2.58;;
32347;SDS011;18821;44.800;10.326;2023-04-15T00:18:40;8.82;;;1.77;;
32347;SDS011;18821;44.800;10.326;2023-04-15T00:21:06;9.27;;;1.95;;
32347;SDS011;18821;44.800;10.326;2023-04-15T00:23:32;10.00;;;1.88;;
32347;SDS011;18821;44.800;10.326;2023-04-15T00:25:58;10.23;;;2.03;;
32347;SDS011;18821;44.800;10.326;2023-04-15T00:28:24;13.82;;;2.22;;
32347;SDS011;18821;44.800;10.326;2023-04-15T00:30:49;7.80;;;1.98;;
32347;SDS011;18821;44.800;10.326;2023-04-15T00:33:15;12.55;;;2.25;;
32347;SDS011;18821;44.800;10.326;2023-04-15T00:35:42;9.13;;;1.80;;
32347;SDS011;18821;44.800;10.326;2023-04-15T00:38:08;6.28;;;1.67;;
32347;SDS011;18821;44.800;10.326;2023-04-15T00:40:34;12.77;;;2.55;;
32347;SDS011;18821;44.800;10.326;2023-04-15T00:43:00;20.17;;;2.83;;
32347;SDS011;18821;44.800;10.326;2023-04-15T00:45:26;14.45;;;2.00;;
32347;SDS011;18821;44.800;10.326;2023-04-15T00:47:53;11.35;;;1.70;;
32347;SDS011;18821;44.800;10.326;2023-04-15T00:50:20;7.78;;;1.73;;
32347;SDS011;18821;44.800;10.326;2023-04-15T00:52:46;12.30;;;1.77;;
32347;SDS011;18821;44.800;10.326;2023-04-15T00:55:13;14.32;;;2.08;;
32347;SDS011;18821;44.800;10.326;2023-04-15T00:57:40;11.77;;;2.05;;
32347;SDS011;18821;44.800;10.326;2023-04-15T01:00:06;18.40;;;2.67;;
32347;SDS011;18821;44.800;10.326;2023-04-15T01:02:33;9.75;;;1.50;;
32347;SDS011;18821;44.800;10.326;2023-04-15T01:05:00;15.45;;;2.00;;
32347;SDS011;18821;44.800;10.326;2023-04-15T01:07:28;9.98;;;1.85;;
32347;SDS011;18821;44.800;10.326;2023-04-15T01:09:54;13.30;;;1.40;;
32347;SDS011;18821;44.800;10.326;2023-04-15T01:12:20;8.13;;;1.88;;
32347;SDS011;18821;44.800;10.326;2023-04-15T01:14:46;12.57;;;1.77;;
32347;SDS011;18821;44.800;10.326;2023-04-15T01:17:13;17.38;;;2.35;;
32347;SDS011;18821;44.800;10.326;2023-04-15T01:19:39;10.48;;;2.28;;
32347;SDS011;18821;44.800;10.326;2023-04-15T01:22:06;18.42;;;2.45;;
32347;SDS011;18821;44.800;10.326;2023-04-15T01:24:32;14.88;;;1.95;;
32347;SDS011;18821;44.800;10.326;2023-04-15T01:26:59;20.83;;;2.88;;
32347;SDS011;18821;44.800;10.326;2023-04-15T01:29:25;12.55;;;2.28;;
32347;SDS011;18821;44.800;10.326;2023-04-15T01:31:52;8.23;;;1.58;;
32347;SDS011;18821;44.800;10.326;2023-04-15T01:34:38;15.25;;;1.95;;
32347;SDS011;18821;44.800;10.326;2023-04-15T01:37:22;21.60;;;2.20;;
32347;SDS011;18821;44.800;10.326;2023-04-15T01:39:49;6.97;;;1.67;;
32347;SDS011;18821;44.800;10.326;2023-04-15T01:42:15;8.02;;;1.88;;
32347;SDS011;18821;44.800;10.326;2023-04-15T01:44:42;10.43;;;2.05;;
32347;SDS011;18821;44.800;10.326;2023-04-15T01:47:11;10.23;;;2.72;;
32347;SDS011;18821;44.800;10.326;2023-04-15T01:49:38;11.63;;;1.73;;
32347;SDS011;18821;44.800;10.326;2023-04-15T01:52:06;6.90;;;1.63;;
32347;SDS011;18821;44.800;10.326;2023-04-15T01:54:33;15.32;;;1.88;;
32347;SDS011;18821;44.800;10.326;2023-04-15T01:57:01;8.10;;;1.40;;
32347;SDS011;18821;44.800;10.326;2023-04-15T01:59:30;12.05;;;1.73;;
32347;SDS011;18821;44.800;10.326;2023-04-15T02:01:58;10.48;;;1.90;;
32347;SDS011;18821;44.800;10.326;2023-04-15T02:04:27;8.45;;;1.98;;
32347;SDS011;18821;44.800;10.326;2023-04-15T02:06:54;8.40;;;1.65;;
32347;SDS011;18821;44.800;10.326;2023-04-15T02:09:22;7.05;;;1.58;;
32347;SDS011;18821;44.800;10.326;2023-04-15T02:11:49;15.70;;;2.13;;
32347;SDS011;18821;44.800;10.326;2023-04-15T02:14:18;9.63;;;1.67;;
32347;SDS011;18821;44.800;10.326;2023-04-15T02:16:45;9.80;;;1.70;;
32347;SDS011;18821;44.800;10.326;2023-04-15T02:19:14;10.63;;;1.60;;
32347;SDS011;18821;44.800;10.326;2023-04-15T02:21:41;5.88;;;1.30;;
32347;SDS011;18821;44.800;10.326;2023-04-15T02:24:09;4.60;;;1.30;;
32347;SDS011;18821;44.800;10.326;2023-04-15T02:26:41;12.93;;;1.70;;
32347;SDS011;18821;44.800;10.326;2023-04-15T02:29:08;10.18;;;1.80;;
32347;SDS011;18821;44.800;10.326;2023-04-15T02:31:35;18.13;;;1.80;;
32347;SDS011;18821;44.800;10.326;2023-04-15T02:34:05;9.23;;;2.15;;
32347;SDS011;18821;44.800;10.326;2023-04-15T02:36:33;7.50;;;1.63;;
32347;SDS011;18821;44.800;10.326;2023-04-15T02:39:00;13.65;;;1.70;;
32347;SDS011;18821;44.800;10.326;2023-04-15T02:41:29;6.95;;;1.65;;
32347;SDS011;18821;44.800;10.326;2023-04-15T02:43:56;7.40;;;1.83;;
32347;SDS011;18821;44.800;10.326;2023-04-15T02:46:23;6.53;;;1.35;;
32347;SDS011;18821;44.800;10.326;2023-04-15T02:48:51;7.53;;;1.52;;
32347;SDS011;18821;44.800;10.326;2023-04-15T02:51:20;6.22;;;1.40;;
32347;SDS011;18821;44.800;10.326;2023-04-15T02:53:51;8.63;;;2.15;;
32347;SDS011;18821;44.800;10.326;2023-04-15T02:56:18;6.90;;;1.50;;
32347;SDS011;18821;44.800;10.326;2023-04-15T02:58:45;10.02;;;1.88;;
32347;SDS011;18821;44.800;10.326;2023-04-15T03:01:16;8.07;;;1.45;;
32347;SDS011;18821;44.800;10.326;2023-04-15T03:03:43;7.28;;;1.50;;
32347;SDS011;18821;44.800;10.326;2023-04-15T03:06:10;7.15;;;1.70;;
32347;SDS011;18821;44.800;10.326;2023-04-15T03:08:37;6.93;;;1.67;;
32347;SDS011;18821;44.800;10.326;2023-04-15T03:11:04;8.40;;;1.27;;
32347;SDS011;18821;44.800;10.326;2023-04-15T03:13:33;7.43;;;1.58;;
32347;SDS011;18821;44.800;10.326;2023-04-15T03:16:06;2.28;;;0.82;;
32347;SDS011;18821;44.800;10.326;2023-04-15T03:18:34;9.38;;;1.90;;
32347;SDS011;18821;44.800;10.326;2023-04-15T03:21:03;3.17;;;1.02;;
32347;SDS011;18821;44.800;10.326;2023-04-15T03:23:34;6.68;;;1.17;;
32347;SDS011;18821;44.800;10.326;2023-04-15T03:26:02;6.28;;;1.27;;
32347;SDS011;18821;44.800;10.326;2023-04-15T03:28:32;8.27;;;1.63;;
32347;SDS011;18821;44.800;10.326;2023-04-15T03:31:00;10.55;;;1.88;;
32347;SDS011;18821;44.800;10.326;2023-04-15T03:33:27;7.97;;;1.92;;
32347;SDS011;18821;44.800;10.326;2023-04-15T03:35:54;10.80;;;1.75;;
32347;SDS011;18821;44.800;10.326;2023-04-15T03:38:21;7.22;;;1.65;;
32347;SDS011;18821;44.800;10.326;2023-04-15T03:40:48;8.10;;;1.17;;
32347;SDS011;18821;44.800;10.326;2023-04-15T03:43:15;10.40;;;1.40;;
32347;SDS011;18821;44.800;10.326;2023-04-15T03:45:42;5.00;;;1.60;;
32347;SDS011;18821;44.800;10.326;2023-04-15T03:48:09;9.73;;;1.33;;
32347;SDS011;18821;44.800;10.326;2023-04-15T03:50:37;7.82;;;1.33;;
32347;SDS011;18821;44.800;10.326;2023-04-15T03:53:04;7.85;;;1.30;;
32347;SDS011;18821;44.800;10.326;2023-04-15T03:55:31;7.13;;;1.50;;
32347;SDS011;18821;44.800;10.326;2023-04-15T03:57:58;3.55;;;1.45;;
32347;SDS011;18821;44.800;10.326;2023-04-15T04:00:25;11.65;;;1.58;;
32347;SDS011;18821;44.800;10.326;2023-04-15T04:02:52;6.05;;;1.17;;
32347;SDS011;18821;44.800;10.326;2023-04-15T04:05:19;5.13;;;1.27;;
32347;SDS011;18821;44.800;10.326;2023-04-15T04:07:46;8.38;;;1.83;;
32347;SDS011;18821;44.800;10.326;2023-04-15T04:10:14;11.05;;;1.77;;
32347;SDS011;18821;44.800;10.326;2023-04-15T04:12:41;5.50;;;1.40;;
32347;SDS011;18821;44.800;10.326;2023-04-15T04:15:08;8.23;;;1.90;;
32347;SDS011;18821;44.800;10.326;2023-04-15T04:17:35;6.70;;;1.40;;
32347;SDS011;18821;44.800;10.326;2023-04-15T04:20:02;7.47;;;1.58;;
32347;SDS011;18821;44.800;10.326;2023-04-15T04:22:31;14.20;;;1.52;;
32347;SDS011;18821;44.800;10.326;2023-04-15T04:27:34;12.25;;;1.50;;
32347;SDS011;18821;44.800;10.326;2023-04-15T04:30:01;5.97;;;1.52;;
32347;SDS011;18821;44.800;10.326;2023-04-15T04:32:29;9.45;;;2.05;;
32347;SDS011;18821;44.800;10.326;2023-04-15T04:34:56;6.93;;;2.10;;
32347;SDS011;18821;44.800;10.326;2023-04-15T04:37:23;6.35;;;1.85;;
32347;SDS011;18821;44.800;10.326;2023-04-15T04:39:50;7.07;;;2.05;;
32347;SDS011;18821;44.800;10.326;2023-04-15T04:42:17;9.60;;;1.95;;
32347;SDS011;18821;44.800;10.326;2023-04-15T04:44:44;7.32;;;1.88;;
32347;SDS011;18821;44.800;10.326;2023-04-15T04:47:11;11.85;;;2.63;;
32347;SDS011;18821;44.800;10.326;2023-04-15T04:49:39;8.02;;;2.40;;
32347;SDS011;18821;44.800;10.326;2023-04-15T04:52:07;15.20;;;2.30;;
32347;SDS011;18821;44.800;10.326;2023-04-15T04:54:34;10.82;;;2.17;;
32347;SDS011;18821;44.800;10.326;2023-04-15T04:57:01;9.27;;;2.97;;
32347;SDS011;18821;44.800;10.326;2023-04-15T04:59:28;13.93;;;2.45;;
32347;SDS011;18821;44.800;10.326;2023-04-15T05:01:55;19.10;;;2.95;;
32347;SDS011;18821;44.800;10.326;2023-04-15T05:04:22;15.45;;;2.25;;
32347;SDS011;18821;44.800;10.326;2023-04-15T05:06:49;10.95;;;2.33;;
32347;SDS011;18821;44.800;10.326;2023-04-15T05:09:17;8.77;;;2.35;;
32347;SDS011;18821;44.800;10.326;2023-04-15T05:11:44;8.57;;;2.42;;
32347;SDS011;18821;44.800;10.326;2023-04-15T05:14:11;12.15;;;2.63;;
32347;SDS011;18821;44.800;10.326;2023-04-15T05:16:38;9.80;;;2.63;;
32347;SDS011;18821;44.800;10.326;2023-04-15T05:19:05;7.20;;;1.95;;
32347;SDS011;18821;44.800;10.326;2023-04-15T05:21:33;12.07;;;2.15;;
32347;SDS011;18821;44.800;10.326;2023-04-15T05:24:00;10.00;;;2.35;;
32347;SDS011;18821;44.800;10.326;2023-04-15T05:26:27;10.35;;;1.90;;
32347;SDS011;18821;44.800;10.326;2023-04-15T05:28:54;15.45;;;2.65;;
32347;SDS011;18821;44.800;10.326;2023-04-15T05:31:21;14.13;;;2.30;;
32347;SDS011;18821;44.800;10.326;2023-04-15T05:33:48;9.95;;;2.30;;
32347;SDS011;18821;44.800;10.326;2023-04-15T05:36:15;14.02;;;2.08;;
32347;SDS011;18821;44.800;10.326;2023-04-15T05:38:42;12.15;;;2.40;;
32347;SDS011;18821;44.800;10.326;2023-04-15T05:41:09;10.98;;;2.47;;
32347;SDS011;18821;44.800;10.326;2023-04-15T05:43:36;8.80;;;2.50;;
32347;SDS011;18821;44.800;10.326;2023-04-15T05:46:04;7.53;;;2.25;;
32347;SDS011;18821;44.800;10.326;2023-04-15T05:48:31;14.70;;;2.78;;
32347;SDS011;18821;44.800;10.326;2023-04-15T05:50:58;17.80;;;3.03;;
32347;SDS011;18821;44.800;10.326;2023-04-15T05:53:26;11.10;;;2.58;;
32347;SDS011;18821;44.800;10.326;2023-04-15T05:55:53;17.38;;;2.75;;
32347;SDS011;18821;44.800;10.326;2023-04-15T05:58:20;13.82;;;2.80;;
32347;SDS011;18821;44.800;10.326;2023-04-15T06:00:47;35.65;;;3.15;;
32347;SDS011;18821;44.800;10.326;2023-04-15T06:03:14;9.60;;;2.72;;
32347;SDS011;18821;44.800;10.326;2023-04-15T06:05:42;28.35;;;3.60;;
32347;SDS011;18821;44.800;10.326;2023-04-15T06:08:10;5.38;;;2.00;;
32347;SDS011;18821;44.800;10.326;2023-04-15T06:10:37;7.47;;;3.00;;
32347;SDS011;18821;44.800;10.326;2023-04-15T06:13:05;6.45;;;2.15;;
32347;SDS011;18821;44.800;10.326;2023-04-15T06:15:32;8.30;;;2.20;;
32347;SDS011;18821;44.800;10.326;2023-04-15T06:17:59;21.23;;;3.65;;
32347;SDS011;18821;44.800;10.326;2023-04-15T06:20:26;9.95;;;2.53;;
32347;SDS011;18821;44.800;10.326;2023-04-15T06:22:54;16.60;;;3.08;;
32347;SDS011;18821;44.800;10.326;2023-04-15T06:25:21;10.73;;;1.98;;
32347;SDS011;18821;44.800;10.326;2023-04-15T06:27:48;9.77;;;2.28;;
32347;SDS011;18821;44.800;10.326;2023-04-15T06:30:15;10.02;;;2.42;;
32347;SDS011;18821;44.800;10.326;2023-04-15T06:32:42;12.27;;;2.80;;
32347;SDS011;18821;44.800;10.326;2023-04-15T06:35:10;8.90;;;2.50;;
32347;SDS011;18821;44.800;10.326;2023-04-15T06:37:37;7.60;;;2.85;;
32347;SDS011;18821;44.800;10.326;2023-04-15T06:40:04;10.27;;;3.35;;
32347;SDS011;18821;44.800;10.326;2023-04-15T06:42:32;10.18;;;2.40;;
32347;SDS011;18821;44.800;10.326;2023-04-15T06:44:59;7.82;;;2.17;;
32347;SDS011;18821;44.800;10.326;2023-04-15T06:47:26;11.23;;;2.40;;
32347;SDS011;18821;44.800;10.326;2023-04-15T06:49:54;7.60;;;1.90;;
32347;SDS011;18821;44.800;10.326;2023-04-15T06:52:21;7.97;;;2.50;;
32347;SDS011;18821;44.800;10.326;2023-04-15T06:54:48;6.53;;;2.20;;
32347;SDS011;18821;44.800;10.326;2023-04-15T06:57:15;12.05;;;2.38;;
32347;SDS011;18821;44.800;10.326;2023-04-15T06:59:42;13.80;;;2.78;;
32347;SDS011;18821;44.800;10.326;2023-04-15T07:02:10;10.60;;;2.50;;
32347;SDS011;18821;44.800;10.326;2023-04-15T07:04:38;10.43;;;2.28;;
32347;SDS011;18821;44.800;10.326;2023-04-15T07:07:05;8.05;;;2.28;;
32347;SDS011;18821;44.800;10.326;2023-04-15T07:09:33;5.00;;;2.35;;
32347;SDS011;18821;44.800;10.326;2023-04-15T07:12:00;6.47;;;2.47;;
32347;SDS011;18821;44.800;10.326;2023-04-15T07:14:28;5.80;;;2.35;;
32347;SDS011;18821;44.800;10.326;2023-04-15T07:16:55;7.63;;;2.30;;
32347;SDS011;18821;44.800;10.326;2023-04-15T07:19:23;9.52;;;2.22;;
32347;SDS011;18821;44.800;10.326;2023-04-15T07:21:50;6.00;;;2.10;;
32347;SDS011;18821;44.800;10.326;2023-04-15T07:24:17;5.85;;;2.22;;
32347;SDS011;18821;44.800;10.326;2023-04-15T07:26:45;5.85;;;2.50;;
32347;SDS011;18821;44.800;10.326;2023-04-15T07:29:12;6.03;;;2.20;;
32347;SDS011;18821;44.800;10.326;2023-04-15T07:31:40;4.97;;;2.60;;
32347;SDS011;18821;44.800;10.326;2023-04-15T07:34:07;10.35;;;2.97;;
32347;SDS011;18821;44.800;10.326;2023-04-15T07:36:34;10.95;;;3.13;;
32347;SDS011;18821;44.800;10.326;2023-04-15T07:39:02;9.00;;;2.95;;
32347;SDS011;18821;44.800;10.326;2023-04-15T07:41:29;7.38;;;3.15;;
32347;SDS011;18821;44.800;10.326;2023-04-15T07:43:57;6.43;;;3.00;;
32347;SDS011;18821;44.800;10.326;2023-04-15T07:46:24;8.80;;;3.33;;
32347;SDS011;18821;44.800;10.326;2023-04-15T07:48:52;6.82;;;3.40;;
32347;SDS011;18821;44.800;10.326;2023-04-15T07:51:20;9.20;;;3.63;;
32347;SDS011;18821;44.800;10.326;2023-04-15T07:53:47;12.05;;;4.10;;
32347;SDS011;18821;44.800;10.326;2023-04-15T07:56:15;6.82;;;3.75;;
32347;SDS011;18821;44.800;10.326;2023-04-15T07:58:43;7.03;;;2.83;;
32347;SDS011;18821;44.800;10.326;2023-04-15T08:01:10;8.40;;;3.42;;
32347;SDS011;18821;44.800;10.326;2023-04-15T08:03:37;8.30;;;3.47;;
32347;SDS011;18821;44.800;10.326;2023-04-15T08:06:05;6.68;;;2.83;;
32347;SDS011;18821;44.800;10.326;2023-04-15T08:08:32;8.98;;;3.05;;
32347;SDS011;18821;44.800;10.326;2023-04-15T08:10:59;7.63;;;3.65;;
32347;SDS011;18821;44.800;10.326;2023-04-15T08:13:26;8.80;;;3.20;;
32347;SDS011;18821;44.800;10.326;2023-04-15T08:18:59;11.25;;;3.17;;
32347;SDS011;18821;44.800;10.326;2023-04-15T08:21:26;9.60;;;2.78;;
32347;SDS011;18821;44.800;10.326;2023-04-15T08:23:56;8.77;;;3.00;;
32347;SDS011;18821;44.800;10.326;2023-04-15T08:26:23;6.50;;;3.10;;
32347;SDS011;18821;44.800;10.326;2023-04-15T08:28:50;7.95;;;3.15;;
32347;SDS011;18821;44.800;10.326;2023-04-15T08:31:17;5.80;;;2.45;;
32347;SDS011;18821;44.800;10.326;2023-04-15T08:33:45;6.35;;;3.00;;
32347;SDS011;18821;44.800;10.326;2023-04-15T08:36:12;8.77;;;2.90;;
32347;SDS011;18821;44.800;10.326;2023-04-15T08:38:39;5.38;;;2.63;;
32347;SDS011;18821;44.800;10.326;2023-04-15T08:41:07;4.93;;;2.40;;
32347;SDS011;18821;44.800;10.326;2023-04-15T08:43:51;4.93;;;2.67;;
32347;SDS011;18821;44.800;10.326;2023-04-15T08:46:22;6.70;;;2.95;;
32347;SDS011;18821;44.800;10.326;2023-04-15T08:48:50;7.03;;;2.90;;
32347;SDS011;18821;44.800;10.326;2023-04-15T08:51:19;9.63;;;3.47;;
32347;SDS011;18821;44.800;10.326;2023-04-15T08:53:47;5.97;;;2.90;;
32347;SDS011;18821;44.800;10.326;2023-04-15T08:56:16;5.32;;;3.20;;
32347;SDS011;18821;44.800;10.326;2023-04-15T08:58:44;8.70;;;3.45;;
32347;SDS011;18821;44.800;10.326;2023-04-15T09:01:12;7.88;;;3.83;;
32347;SDS011;18821;44.800;10.326;2023-04-15T09:03:39;4.90;;;3.17;;
32347;SDS011;18821;44.800;10.326;2023-04-15T09:06:07;13.43;;;4.47;;
32347;SDS011;18821;44.800;10.326;2023-04-15T09:08:35;6.00;;;3.10;;
32347;SDS011;18821;44.800;10.326;2023-04-15T09:11:02;9.32;;;3.40;;
32347;SDS011;18821;44.800;10.326;2023-04-15T09:13:30;10.43;;;3.53;;
32347;SDS011;18821;44.800;10.326;2023-04-15T09:15:57;4.90;;;3.53;;
32347;SDS011;18821;44.800;10.326;2023-04-15T09:18:27;12.68;;;3.22;;
32347;SDS011;18821;44.800;10.326;2023-04-15T09:21:02;6.63;;;3.38;;
32347;SDS011;18821;44.800;10.326;2023-04-15T09:23:34;6.85;;;3.17;;
32347;SDS011;18821;44.800;10.326;2023-04-15T09:26:02;5.72;;;2.83;;
32347;SDS011;18821;44.800;10.326;2023-04-15T09:28:30;8.52;;;3.80;;
32347;SDS011;18821;44.800;10.326;2023-04-15T09:30:58;8.50;;;3.28;;
32347;SDS011;18821;44.800;10.326;2023-04-15T09:33:26;7.50;;;3.17;;
32347;SDS011;18821;44.800;10.326;2023-04-15T09:35:55;6.57;;;3.78;;
32347;SDS011;18821;44.800;10.326;2023-04-15T09:38:24;6.05;;;3.30;;
32347;SDS011;18821;44.800;10.326;2023-04-15T09:40:51;6.93;;;2.83;;
32347;SDS011;18821;44.800;10.326;2023-04-15T09:43:18;8.02;;;3.28;;
32347;SDS011;18821;44.800;10.326;2023-04-15T09:45:47;8.45;;;3.33;;
32347;SDS011;18821;44.800;10.326;2023-04-15T09:48:19;11.48;;;3.92;;
32347;SDS011;18821;44.800;10.326;2023-04-15T09:50:47;8.18;;;3.17;;
32347;SDS011;18821;44.800;10.326;2023-04-15T09:53:16;6.95;;;3.60;;
32347;SDS011;18821;44.800;10.326;2023-04-15T09:55:54;9.20;;;3.15;;
32347;SDS011;18821;44.800;10.326;2023-04-15T09:58:24;5.35;;;3.25;;
32347;SDS011;18821;44.800;10.326;2023-04-15T10:00:53;6.25;;;2.63;;
32347;SDS011;18821;44.800;10.326;2023-04-15T10:03:30;8.05;;;2.90;;
32347;SDS011;18821;44.800;10.326;2023-04-15T10:06:00;7.90;;;2.83;;
32347;SDS011;18821;44.800;10.326;2023-04-15T10:08:28;7.28;;;2.88;;
32347;SDS011;18821;44.800;10.326;2023-04-15T10:10:57;9.98;;;3.65;;
32347;SDS011;18821;44.800;10.326;2023-04-15T10:13:25;8.90;;;3.88;;
32347;SDS011;18821;44.800;10.326;2023-04-15T10:15:56;8.63;;;4.40;;
32347;SDS011;18821;44.800;10.326;2023-04-15T10:18:31;9.60;;;4.45;;
32347;SDS011;18821;44.800;10.326;2023-04-15T10:21:01;7.05;;;3.63;;
32347;SDS011;18821;44.800;10.326;2023-04-15T10:23:29;9.07;;;4.05;;
32347;SDS011;18821;44.800;10.326;2023-04-15T10:25:56;6.80;;;3.78;;
32347;SDS011;18821;44.800;10.326;2023-04-15T10:28:25;11.68;;;4.30;;
32347;SDS011;18821;44.800;10.326;2023-04-15T10:30:53;5.88;;;3.50;;
32347;SDS011;18821;44.800;10.326;2023-04-15T10:33:21;8.75;;;4.18;;
32347;SDS011;18821;44.800;10.326;2023-04-15T10:35:50;10.57;;;4.63;;
32347;SDS011;18821;44.800;10.326;2023-04-15T10:41:11;5.28;;;4.18;;
32347;SDS011;18821;44.800;10.326;2023-04-15T10:43:44;11.00;;;4.50;;
32347;SDS011;18821;44.800;10.326;2023-04-15T10:46:17;6.20;;;4.32;;
32347;SDS011;18821;44.800;10.326;2023-04-15T10:48:49;8.45;;;4.47;;
32347;SDS011;18821;44.800;10.326;2023-04-15T10:51:29;8.00;;;4.00;;
32347;SDS011;18821;44.800;10.326;2023-04-15T10:54:00;5.13;;;3.38;;
32347;SDS011;18821;44.800;10.326;2023-04-15T10:56:28;9.68;;;4.00;;
32347;SDS011;18821;44.800;10.326;2023-04-15T10:58:57;8.00;;;4.00;;
32347;SDS011;18821;44.800;10.326;2023-04-15T11:05:03;9.27;;;4.13;;
32347;SDS011;18821;44.800;10.326;2023-04-15T11:12:44;6.82;;;3.50;;
32347;SDS011;18821;44.800;10.326;2023-04-15T11:15:28;7.80;;;3.83;;
32347;SDS011;18821;44.800;10.326;2023-04-15T11:20:41;7.22;;;4.15;;
32347;SDS011;18821;44.800;10.326;2023-04-15T11:23:13;9.38;;;3.60;;
32347;SDS011;18821;44.800;10.326;2023-04-15T11:25:41;8.15;;;4.45;;
32347;SDS011;18821;44.800;10.326;2023-04-15T11:28:09;6.70;;;4.28;;
32347;SDS011;18821;44.800;10.326;2023-04-15T11:30:38;5.68;;;3.78;;
32347;SDS011;18821;44.800;10.326;2023-04-15T11:33:07;8.52;;;4.10;;
32347;SDS011;18821;44.800;10.326;2023-04-15T11:35:37;8.52;;;5.35;;
32347;SDS011;18821;44.800;10.326;2023-04-15T11:38:10;10.43;;;4.82;;
32347;SDS011;18821;44.800;10.326;2023-04-15T11:40:39;8.05;;;4.60;;
32347;SDS011;18821;44.800;10.326;2023-04-15T11:43:11;8.23;;;4.20;;
32347;SDS011;18821;44.800;10.326;2023-04-15T11:45:53;7.97;;;5.10;;
32347;SDS011;18821;44.800;10.326;2023-04-15T11:48:26;10.60;;;4.32;;
32347;SDS011;18821;44.800;10.326;2023-04-15T11:51:03;6.53;;;4.05;;
32347;SDS011;18821;44.800;10.326;2023-04-15T11:53:38;9.48;;;4.53;;
32347;SDS011;18821;44.800;10.326;2023-04-15T11:56:16;7.38;;;4.55;;
32347;SDS011;18821;44.800;10.326;2023-04-15T11:58:52;9.80;;;4.00;;
32347;SDS011;18821;44.800;10.326;2023-04-15T12:01:29;7.72;;;4.25;;
32347;SDS011;18821;44.800;10.326;2023-04-15T12:03:59;9.30;;;4.40;;
32347;SDS011;18821;44.800;10.326;2023-04-15T12:06:30;7.35;;;3.97;;
32347;SDS011;18821;44.800;10.326;2023-04-15T12:11:33;9.07;;;4.43;;
32347;SDS011;18821;44.800;10.326;2023-04-15T12:16:35;7.57;;;4.38;;
32347;SDS011;18821;44.800;10.326;2023-04-15T12:19:11;7.13;;;4.22;;
32347;SDS011;18821;44.800;10.326;2023-04-15T12:21:39;6.93;;;4.20;;
32347;SDS011;18821;44.800;10.326;2023-04-15T12:24:09;7.07;;;4.03;;
32347;SDS011;18821;44.800;10.326;2023-04-15T12:26:42;7.82;;;4.40;;
32347;SDS011;18821;44.800;10.326;2023-04-15T12:29:08;12.00;;;5.30;;
32347;SDS011;18821;44.800;10.326;2023-04-15T12:31:35;8.35;;;4.32;;
32347;SDS011;18821;44.800;10.326;2023-04-15T12:34:01;7.47;;;4.65;;
32347;SDS011;18821;44.800;10.326;2023-04-15T12:36:29;9.25;;;4.07;;
32347;SDS011;18821;44.800;10.326;2023-04-15T12:39:01;12.02;;;4.25;;
32347;SDS011;18821;44.800;10.326;2023-04-15T12:41:28;7.93;;;4.07;;
32347;SDS011;18821;44.800;10.326;2023-04-15T12:43:54;8.50;;;4.45;;
32347;SDS011;18821;44.800;10.326;2023-04-15T12:46:20;6.18;;;3.10;;
32347;SDS011;18821;44.800;10.326;2023-04-15T12:48:46;8.10;;;3.53;;
32347;SDS011;18821;44.800;10.326;2023-04-15T12:51:12;7.68;;;3.58;;
32347;SDS011;18821;44.800;10.326;2023-04-15T12:53:38;7.00;;;3.30;;
32347;SDS011;18821;44.800;10.326;2023-04-15T12:56:04;4.65;;;3.78;;
32347;SDS011;18821;44.800;10.326;2023-04-15T12:58:31;5.20;;;3.35;;
32347;SDS011;18821;44.800;10.326;2023-04-15T13:00:57;6.95;;;4.20;;
32347;SDS011;18821;44.800;10.326;2023-04-15T13:03:23;7.35;;;4.25;;
32347;SDS011;18821;44.800;10.326;2023-04-15T13:05:49;6.65;;;3.42;;
32347;SDS011;18821;44.800;10.326;2023-04-15T13:08:24;6.65;;;4.53;;
32347;SDS011;18821;44.800;10.326;2023-04-15T13:10:50;8.38;;;5.15;;
32347;SDS011;18821;44.800;10.326;2023-04-15T13:13:16;8.13;;;4.78;;
32347;SDS011;18821;44.800;10.326;2023-04-15T13:15:42;7.13;;;4.60;;
32347;SDS011;18821;44.800;10.326;2023-04-15T13:18:10;9.18;;;5.05;;
32347;SDS011;18821;44.800;10.326;2023-04-15T13:20:36;9.95;;;3.92;;
32347;SDS011;18821;44.800;10.326;2023-04-15T13:23:02;7.65;;;4.00;;
32347;SDS011;18821;44.800;10.326;2023-04-15T13:25:27;6.00;;;4.15;;
32347;SDS011;18821;44.800;10.326;2023-04-15T13:27:53;5.10;;;3.58;;
32347;SDS011;18821;44.800;10.326;2023-04-15T13:30:19;7.38;;;3.30;;
32347;SDS011;18821;44.800;10.326;2023-04-15T13:32:46;7.78;;;4.00;;
32347;SDS011;18821;44.800;10.326;2023-04-15T13:35:13;9.40;;;4.47;;
32347;SDS011;18821;44.800;10.326;2023-04-15T13:37:40;6.10;;;3.85;;
32347;SDS011;18821;44.800;10.326;2023-04-15T13:40:06;7.00;;;3.65;;
32347;SDS011;18821;44.800;10.326;2023-04-15T13:42:33;5.93;;;3.50;;
32347;SDS011;18821;44.800;10.326;2023-04-15T13:44:59;6.63;;;3.85;;
32347;SDS011;18821;44.800;10.326;2023-04-15T13:47:24;4.70;;;3.47;;
32347;SDS011;18821;44.800;10.326;2023-04-15T13:49:50;9.02;;;3.40;;
32347;SDS011;18821;44.800;10.326;2023-04-15T13:52:18;6.30;;;3.45;;
32347;SDS011;18821;44.800;10.326;2023-04-15T13:54:44;5.18;;;3.55;;
32347;SDS011;18821;44.800;10.326;2023-04-15T13:57:11;4.20;;;2.83;;
32347;SDS011;18821;44.800;10.326;2023-04-15T13:59:37;6.82;;;3.58;;
32347;SDS011;18821;44.800;10.326;2023-04-15T14:02:04;8.27;;;3.92;;
32347;SDS011;18821;44.800;10.326;2023-04-15T14:04:30;5.90;;;3.90;;
32347;SDS011;18821;44.800;10.326;2023-04-15T14:06:57;6.22;;;4.28;;
32347;SDS011;18821;44.800;10.326;2023-04-15T14:09:23;5.63;;;3.80;;
32347;SDS011;18821;44.800;10.326;2023-04-15T14:11:49;8.63;;;3.92;;
32347;SDS011;18821;44.800;10.326;2023-04-15T14:14:15;6.28;;;3.70;;
32347;SDS011;18821;44.800;10.326;2023-04-15T14:16:41;6.45;;;3.30;;
32347;SDS011;18821;44.800;10.326;2023-04-15T14:19:07;7.35;;;3.38;;
32347;SDS011;18821;44.800;10.326;2023-04-15T14:21:33;3.30;;;2.42;;
32347;SDS011;18821;44.800;10.326;2023-04-15T14:24:00;5.50;;;2.83;;
32347;SDS011;18821;44.800;10.326;2023-04-15T14:26:26;8.20;;;3.80;;
32347;SDS011;18821;44.800;10.326;2023-04-15T14:28:52;5.88;;;3.45;;
32347;SDS011;18821;44.800;10.326;2023-04-15T14:31:18;5.50;;;3.28;;
32347;SDS011;18821;44.800;10.326;2023-04-15T14:33:44;6.82;;;3.55;;
32347;SDS011;18821;44.800;10.326;2023-04-15T14:36:10;13.80;;;4.05;;
32347;SDS011;18821;44.800;10.326;2023-04-15T14:38:36;6.97;;;3.53;;
32347;SDS011;18821;44.800;10.326;2023-04-15T14:41:07;8.68;;;3.55;;
32347;SDS011;18821;44.800;10.326;2023-04-15T14:43:34;4.93;;;3.10;;
32347;SDS011;18821;44.800;10.326;2023-04-15T14:46:00;7.10;;;3.53;;
32347;SDS011;18821;44.800;10.326;2023-04-15T14:48:26;10.45;;;3.88;;
32347;SDS011;18821;44.800;10.326;2023-04-15T14:50:52;7.63;;;3.45;;
32347;SDS011;18821;44.800;10.326;2023-04-15T14:53:18;6.85;;;3.58;;
32347;SDS011;18821;44.800;10.326;2023-04-15T14:55:44;8.65;;;3.75;;
32347;SDS011;18821;44.800;10.326;2023-04-15T14:58:10;7.25;;;3.50;;
32347;SDS011;18821;44.800;10.326;2023-04-15T15:00:39;4.85;;;3.35;;